createdAt,value
2018-03-26T00:00:54.565Z,0.00
2018-03-26T00:01:54.580Z,0.00
2018-03-26T00:03:48.014Z,0.00
2018-03-26T00:04:48.005Z,0.00
2018-03-26T00:06:40.929Z,0.00
2018-03-26T00:07:40.940Z,0.00
2018-03-26T00:09:34.384Z,0.00
2018-03-26T00:10:34.371Z,0.00
2018-03-26T00:12:27.825Z,0.00
2018-03-26T00:13:27.811Z,0.00
2018-03-26T00:15:20.760Z,0.00
2018-03-26T00:16:20.754Z,0.00
2018-03-26T00:18:13.695Z,0.00
2018-03-26T00:19:13.686Z,0.00
2018-03-26T00:21:06.610Z,0.00
2018-03-26T00:22:06.620Z,0.00
2018-03-26T00:23:59.574Z,0.00
2018-03-26T00:24:59.565Z,0.00
2018-03-26T00:26:52.496Z,0.00
2018-03-26T00:27:52.509Z,0.00
2018-03-26T00:29:45.462Z,0.00
2018-03-26T00:30:45.456Z,0.00
2018-03-26T00:32:38.884Z,0.00
2018-03-26T00:33:38.891Z,0.00
2018-03-26T00:35:31.844Z,0.00
2018-03-26T00:36:31.834Z,0.00
2018-03-26T00:38:24.793Z,0.00
2018-03-26T00:39:24.790Z,0.00
2018-03-26T00:41:17.710Z,0.00
2018-03-26T00:42:17.716Z,0.00
2018-03-26T00:44:11.167Z,0.00
2018-03-26T00:45:11.151Z,0.00
2018-03-26T00:47:04.078Z,0.00
2018-03-26T00:48:04.088Z,0.00
2018-03-26T00:49:57.058Z,0.00
2018-03-26T00:50:57.043Z,0.00
2018-03-26T00:52:49.966Z,0.00
2018-03-26T00:53:49.974Z,0.00
2018-03-26T00:55:42.918Z,0.00
2018-03-26T00:56:42.908Z,0.00
2018-03-26T00:58:35.848Z,0.00
2018-03-26T00:59:35.853Z,0.00
2018-03-26T01:01:28.817Z,0.00
2018-03-26T01:02:28.805Z,0.00
2018-03-26T01:04:21.760Z,0.00
2018-03-26T01:05:21.746Z,0.00
2018-03-26T01:07:14.695Z,0.00
2018-03-26T01:08:14.685Z,0.00
2018-03-26T01:10:07.643Z,0.00
2018-03-26T01:11:07.631Z,0.00
2018-03-26T01:13:00.593Z,0.00
2018-03-26T01:14:00.582Z,0.00
2018-03-26T01:15:53.529Z,0.00
2018-03-26T01:16:53.518Z,0.00
2018-03-26T01:18:46.453Z,0.00
2018-03-26T01:19:46.460Z,0.00
2018-03-26T01:21:39.404Z,0.00
2018-03-26T01:22:39.397Z,0.00
2018-03-26T01:24:32.339Z,0.00
2018-03-26T01:25:32.330Z,0.00
2018-03-26T01:27:25.256Z,0.00
2018-03-26T01:28:25.265Z,0.00
2018-03-26T01:30:18.210Z,0.00
2018-03-26T01:31:18.201Z,0.00
2018-03-26T01:33:11.126Z,0.00
2018-03-26T01:34:11.141Z,0.00
2018-03-26T01:36:15.169Z,0.00
2018-03-26T01:37:15.175Z,0.00
2018-03-26T01:39:08.082Z,0.00
2018-03-26T01:40:08.094Z,0.00
2018-03-26T01:42:01.045Z,0.00
2018-03-26T01:43:03.548Z,0.00
2018-03-26T01:44:53.988Z,0.00
2018-03-26T01:45:53.990Z,0.00
2018-03-26T01:47:46.910Z,0.00
2018-03-26T01:48:46.917Z,0.00
2018-03-26T01:50:39.881Z,0.00
2018-03-26T01:51:39.861Z,0.00
2018-03-26T01:53:33.277Z,0.00
2018-03-26T01:54:33.289Z,0.00
2018-03-26T01:56:26.243Z,0.00
2018-03-26T01:57:26.254Z,0.00
2018-03-26T01:59:19.169Z,0.00
2018-03-26T02:00:19.179Z,0.00
2018-03-26T02:02:12.124Z,0.00
2018-03-26T02:03:12.115Z,0.00
2018-03-26T02:05:05.559Z,0.00
2018-03-26T02:06:05.548Z,0.00
2018-03-26T02:07:58.472Z,0.00
2018-03-26T02:08:58.488Z,0.00
2018-03-26T02:10:51.439Z,0.00
2018-03-26T02:11:51.427Z,0.00
2018-03-26T02:13:44.355Z,0.00
2018-03-26T02:14:44.368Z,0.00
2018-03-26T02:16:37.324Z,0.00
2018-03-26T02:17:37.315Z,0.00
2018-03-26T02:19:30.243Z,0.00
2018-03-26T02:20:30.245Z,0.00
2018-03-26T02:22:23.197Z,0.00
2018-03-26T02:23:23.190Z,0.00
2018-03-26T02:25:16.140Z,0.00
2018-03-26T02:26:16.133Z,0.00
2018-03-26T02:28:09.553Z,0.00
2018-03-26T02:29:09.563Z,0.00
2018-03-26T02:31:02.530Z,0.00
2018-03-26T02:32:02.512Z,0.00
2018-03-26T02:33:55.937Z,0.00
2018-03-26T02:34:55.944Z,0.00
2018-03-26T02:36:48.894Z,0.00
2018-03-26T02:37:48.885Z,0.00
2018-03-26T02:39:41.831Z,0.00
2018-03-26T02:40:41.826Z,0.00
2018-03-26T02:42:34.772Z,0.00
2018-03-26T02:43:34.758Z,0.00
2018-03-26T02:45:27.708Z,0.00
2018-03-26T02:46:27.700Z,0.00
2018-03-26T02:48:20.635Z,0.00
2018-03-26T02:49:20.643Z,0.00
2018-03-26T02:51:13.593Z,0.00
2018-03-26T02:52:13.583Z,0.00
2018-03-26T02:54:06.508Z,0.00
2018-03-26T02:55:06.519Z,0.00
2018-03-26T02:56:59.480Z,0.00
2018-03-26T02:57:59.466Z,0.00
2018-03-26T02:59:52.384Z,0.00
2018-03-26T03:00:52.395Z,0.00
2018-03-26T03:02:45.344Z,0.00
2018-03-26T03:03:45.346Z,0.00
2018-03-26T05:04:38.199Z,0.00
2018-03-26T05:05:38.160Z,0.00
2018-03-26T05:07:31.087Z,0.00
2018-03-26T05:08:31.074Z,0.00
2018-03-26T05:10:23.982Z,0.00
2018-03-26T05:11:23.985Z,0.00
2018-03-26T05:13:16.924Z,0.00
2018-03-26T05:14:16.908Z,0.00
2018-03-26T05:16:09.831Z,0.00
2018-03-26T05:17:09.838Z,0.00
2018-03-26T05:19:02.788Z,0.00
2018-03-26T05:20:02.774Z,0.00
2018-03-26T05:21:55.689Z,0.00
2018-03-26T05:22:55.698Z,0.00
2018-03-26T05:24:48.641Z,0.00
2018-03-26T05:25:48.662Z,5.63
2018-03-26T05:27:41.584Z,5.63
2018-03-26T05:28:41.568Z,5.63
2018-03-26T05:30:34.481Z,5.63
2018-03-26T05:31:34.491Z,5.63
2018-03-26T05:33:27.457Z,5.63
2018-03-26T05:34:27.422Z,5.63
2018-03-26T05:36:20.357Z,11.25
2018-03-26T05:37:20.359Z,11.25
2018-03-26T05:39:13.313Z,11.25
2018-03-26T05:40:13.301Z,11.25
2018-03-26T05:42:06.225Z,16.88
2018-03-26T05:43:06.232Z,16.88
2018-03-26T05:44:59.171Z,16.88
2018-03-26T05:45:59.160Z,16.88
2018-03-26T05:47:52.137Z,28.13
2018-03-26T05:48:52.125Z,28.13
2018-03-26T05:50:45.058Z,28.13
2018-03-26T05:51:45.067Z,28.13
2018-03-26T05:53:38.060Z,28.13
2018-03-26T05:54:38.010Z,33.75
2018-03-26T05:56:30.930Z,39.38
2018-03-26T05:57:30.939Z,39.38
2018-03-26T05:59:23.887Z,39.38
2018-03-26T06:00:23.868Z,39.38
2018-03-26T06:02:16.803Z,45.00
2018-03-26T06:03:16.813Z,45.00
2018-03-26T06:05:09.758Z,45.00
2018-03-26T06:06:09.746Z,39.38
2018-03-26T06:08:02.690Z,39.38
2018-03-26T06:09:02.686Z,39.38
2018-03-26T06:10:55.610Z,33.75
2018-03-26T06:11:55.672Z,33.75
2018-03-26T06:13:49.062Z,28.13
2018-03-26T06:14:49.052Z,33.75
2018-03-26T06:16:41.979Z,33.75
2018-03-26T06:17:41.988Z,33.75
2018-03-26T06:19:34.934Z,33.75
2018-03-26T06:20:34.927Z,33.75
2018-03-26T06:22:28.853Z,33.75
2018-03-26T06:23:28.857Z,39.38
2018-03-26T06:25:21.801Z,39.38
2018-03-26T06:26:21.788Z,39.38
2018-03-26T06:28:14.736Z,39.38
2018-03-26T06:29:14.728Z,39.38
2018-03-26T06:31:07.654Z,39.38
2018-03-26T06:32:07.659Z,45.00
2018-03-26T06:34:00.610Z,56.25
2018-03-26T06:35:00.602Z,56.25
2018-03-26T06:36:53.533Z,56.25
2018-03-26T06:37:53.541Z,67.50
2018-03-26T06:39:46.492Z,67.50
2018-03-26T06:40:46.482Z,67.50
2018-03-26T06:42:39.405Z,78.75
2018-03-26T06:43:39.410Z,78.75
2018-03-26T06:45:32.364Z,78.75
2018-03-26T06:46:32.355Z,95.63
2018-03-26T06:48:25.297Z,84.38
2018-03-26T06:49:25.293Z,106.88
2018-03-26T06:51:18.214Z,106.88
2018-03-26T06:52:18.221Z,106.88
2018-03-26T06:54:11.164Z,90.00
2018-03-26T06:55:11.156Z,73.13
2018-03-26T06:57:04.086Z,73.13
2018-03-26T06:58:04.096Z,67.50
2018-03-26T06:59:57.038Z,84.38
2018-03-26T07:00:57.029Z,95.63
2018-03-26T07:02:49.954Z,129.38
2018-03-26T07:03:49.966Z,118.13
2018-03-26T07:05:42.910Z,123.75
2018-03-26T07:06:42.899Z,129.38
2018-03-26T07:08:35.865Z,140.63
2018-03-26T07:09:35.844Z,140.63
2018-03-26T07:11:28.760Z,146.25
2018-03-26T07:12:28.892Z,140.63
2018-03-26T07:14:21.715Z,129.38
2018-03-26T07:15:21.705Z,146.25
2018-03-26T07:17:14.641Z,106.88
2018-03-26T07:18:14.645Z,106.88
2018-03-26T07:20:07.595Z,84.38
2018-03-26T07:21:07.584Z,78.75
2018-03-26T07:23:00.525Z,106.88
2018-03-26T07:24:00.521Z,95.63
2018-03-26T07:25:53.473Z,118.13
2018-03-26T07:26:53.458Z,123.75
2018-03-26T07:28:46.405Z,118.13
2018-03-26T07:29:46.418Z,118.13
2018-03-26T07:31:39.364Z,129.38
2018-03-26T07:32:39.348Z,129.38
2018-03-26T07:34:32.304Z,230.63
2018-03-26T07:35:32.293Z,196.88
2018-03-26T07:37:25.220Z,180.00
2018-03-26T07:38:25.235Z,208.13
2018-03-26T07:40:18.181Z,157.50
2018-03-26T07:41:18.198Z,146.25
2018-03-26T07:43:11.102Z,185.63
2018-03-26T07:44:11.115Z,225.00
2018-03-26T07:46:04.056Z,191.25
2018-03-26T07:47:04.046Z,241.88
2018-03-26T07:48:56.972Z,236.25
2018-03-26T07:49:56.986Z,275.63
2018-03-26T07:51:49.927Z,225.00
2018-03-26T07:52:49.922Z,225.00
2018-03-26T07:54:42.864Z,208.13
2018-03-26T07:55:42.856Z,191.25
2018-03-26T07:57:35.784Z,236.25
2018-03-26T07:58:35.799Z,236.25
2018-03-26T08:00:28.751Z,253.13
2018-03-26T08:01:28.740Z,208.13
2018-03-26T08:03:21.674Z,180.00
2018-03-26T08:04:21.685Z,264.38
2018-03-26T08:06:14.635Z,208.13
2018-03-26T08:07:14.627Z,191.25
2018-03-26T08:09:07.564Z,230.63
2018-03-26T08:10:07.577Z,236.25
2018-03-26T08:12:00.523Z,174.38
2018-03-26T08:13:00.513Z,185.63
2018-03-26T08:14:53.463Z,180.00
2018-03-26T08:15:53.459Z,253.13
2018-03-26T08:17:46.385Z,258.75
2018-03-26T08:18:46.394Z,219.38
2018-03-26T08:20:39.346Z,185.63
2018-03-26T08:21:39.337Z,196.88
2018-03-26T08:23:32.760Z,219.38
2018-03-26T08:24:32.772Z,230.63
2018-03-26T08:26:25.723Z,286.88
2018-03-26T08:27:25.715Z,275.63
2018-03-26T08:29:18.639Z,264.38
2018-03-26T08:30:18.654Z,270.00
2018-03-26T08:32:11.607Z,298.13
2018-03-26T08:33:11.598Z,326.25
2018-03-26T08:35:04.599Z,270.00
2018-03-26T08:36:04.538Z,213.75
2018-03-26T08:37:57.470Z,281.25
2018-03-26T08:38:57.485Z,303.75
2018-03-26T08:40:50.436Z,303.75
2018-03-26T08:41:50.429Z,270.00
2018-03-26T08:43:43.364Z,292.50
2018-03-26T08:44:43.378Z,286.88
2018-03-26T08:46:36.333Z,286.88
2018-03-26T08:47:36.326Z,270.00
2018-03-26T08:49:29.254Z,241.88
2018-03-26T08:50:29.306Z,230.63
2018-03-26T08:52:22.214Z,202.50
2018-03-26T08:53:23.096Z,196.88
2018-03-26T08:55:15.162Z,202.50
2018-03-26T08:56:15.157Z,213.75
2018-03-26T08:58:08.087Z,208.13
2018-03-26T08:59:08.099Z,202.50
2018-03-26T09:01:01.050Z,202.50
2018-03-26T09:02:01.042Z,202.50
2018-03-26T09:03:54.465Z,185.63
2018-03-26T09:04:54.481Z,180.00
2018-03-26T09:06:47.442Z,191.25
2018-03-26T09:07:47.432Z,191.25
2018-03-26T09:09:40.380Z,180.00
2018-03-26T09:10:40.389Z,191.25
2018-03-26T09:12:33.343Z,191.25
2018-03-26T09:13:33.334Z,191.25
2018-03-26T09:15:26.291Z,196.88
2018-03-26T09:16:26.284Z,191.25
2018-03-26T09:18:19.212Z,196.88
2018-03-26T09:19:19.223Z,196.88
2018-03-26T09:21:13.666Z,196.88
2018-03-26T09:22:13.660Z,196.88
2018-03-26T09:24:06.602Z,191.25
2018-03-26T09:25:06.612Z,191.25
2018-03-26T09:26:59.573Z,191.25
2018-03-26T09:27:59.568Z,191.25
2018-03-26T09:29:52.490Z,185.63
2018-03-26T09:30:52.503Z,191.25
2018-03-26T09:32:45.455Z,191.25
2018-03-26T09:33:45.449Z,191.25
2018-03-26T09:35:38.418Z,191.25
2018-03-26T09:36:38.395Z,196.88
2018-03-26T09:38:31.323Z,185.63
2018-03-26T09:39:31.335Z,185.63
2018-03-26T09:41:24.287Z,180.00
2018-03-26T09:42:24.287Z,196.88
2018-03-26T09:44:17.223Z,196.88
2018-03-26T09:45:17.218Z,196.88
2018-03-26T09:47:10.175Z,196.88
2018-03-26T09:48:10.168Z,191.25
2018-03-26T09:50:03.106Z,191.25
2018-03-26T09:51:03.114Z,196.88
2018-03-26T09:52:56.060Z,196.88
2018-03-26T09:53:56.052Z,202.50
2018-03-26T09:55:48.979Z,202.50
2018-03-26T09:56:48.992Z,202.50
2018-03-26T09:58:41.953Z,202.50
2018-03-26T09:59:41.945Z,208.13
2018-03-26T10:01:34.896Z,208.13
2018-03-26T10:02:34.892Z,213.75
2018-03-26T10:04:27.830Z,213.75
2018-03-26T10:05:27.854Z,219.38
2018-03-26T10:07:20.817Z,219.38
2018-03-26T10:08:20.808Z,219.38
2018-03-26T10:10:13.737Z,208.13
2018-03-26T10:11:13.753Z,213.75
2018-03-26T10:13:06.702Z,219.38
2018-03-26T10:14:06.746Z,219.38
2018-03-26T10:15:59.626Z,219.38
2018-03-26T10:16:59.641Z,225.00
2018-03-26T10:18:52.588Z,219.38
2018-03-26T10:19:52.587Z,219.38
2018-03-26T10:21:45.529Z,225.00
2018-03-26T10:22:45.529Z,225.00
2018-03-26T10:24:38.454Z,225.00
2018-03-26T10:25:38.467Z,230.63
2018-03-26T10:27:31.418Z,230.63
2018-03-26T10:28:31.415Z,236.25
2018-03-26T10:30:24.350Z,236.25
2018-03-26T10:31:24.361Z,236.25
2018-03-26T10:33:17.312Z,236.25
2018-03-26T10:34:17.313Z,236.25
2018-03-26T10:36:10.238Z,247.50
2018-03-26T10:37:10.252Z,241.88
2018-03-26T10:39:03.213Z,236.25
2018-03-26T10:40:03.201Z,241.88
2018-03-26T10:41:56.157Z,225.00
2018-03-26T10:42:56.146Z,225.00
2018-03-26T10:44:49.121Z,225.00
2018-03-26T10:45:49.096Z,219.38
2018-03-26T10:47:42.051Z,219.38
2018-03-26T10:48:42.044Z,230.63
2018-03-26T10:50:34.986Z,230.63
2018-03-26T10:51:35.001Z,230.63
2018-03-26T10:53:27.949Z,225.00
2018-03-26T10:54:27.945Z,225.00
2018-03-26T10:56:20.877Z,230.63
2018-03-26T10:57:20.897Z,230.63
2018-03-26T10:59:14.345Z,230.63
2018-03-26T11:00:14.348Z,230.63
2018-03-26T11:02:07.292Z,230.63
2018-03-26T11:03:07.288Z,230.63
2018-03-26T11:05:00.225Z,230.63
2018-03-26T11:06:00.239Z,219.38
2018-03-26T11:07:53.196Z,225.00
2018-03-26T11:08:53.186Z,225.00
2018-03-26T11:10:46.131Z,230.63
2018-03-26T11:11:46.135Z,230.63
2018-03-26T11:13:39.082Z,219.38
2018-03-26T11:14:39.074Z,219.38
2018-03-26T11:16:32.026Z,208.13
2018-03-26T11:17:32.028Z,196.88
2018-03-26T11:19:25.471Z,202.50
2018-03-26T11:20:25.467Z,191.25
2018-03-26T11:22:18.415Z,191.25
2018-03-26T11:23:18.410Z,185.63
2018-03-26T11:25:11.347Z,202.50
2018-03-26T11:26:11.365Z,191.25
2018-03-26T11:28:04.316Z,202.50
2018-03-26T11:29:04.309Z,202.50
2018-03-26T11:30:57.246Z,225.00
2018-03-26T11:31:57.262Z,225.00
2018-03-26T11:33:50.217Z,230.63
2018-03-26T11:34:50.206Z,247.50
2018-03-26T11:36:43.148Z,258.75
2018-03-26T11:37:43.160Z,258.75
2018-03-26T11:39:36.112Z,247.50
2018-03-26T11:40:36.109Z,241.88
2018-03-26T11:42:29.556Z,230.63
2018-03-26T11:43:29.550Z,225.00
2018-03-26T11:45:22.488Z,230.63
2018-03-26T11:46:22.502Z,236.25
2018-03-26T11:48:15.457Z,236.25
2018-03-26T11:49:15.451Z,230.63
2018-03-26T11:51:08.387Z,236.25
2018-03-26T11:52:08.397Z,219.38
2018-03-26T11:54:01.355Z,258.75
2018-03-26T11:55:01.351Z,258.75
2018-03-26T11:56:54.769Z,258.75
2018-03-26T11:57:54.791Z,253.13
2018-03-26T11:59:47.740Z,258.75
2018-03-26T12:00:47.735Z,258.75
2018-03-26T12:02:40.710Z,264.38
2018-03-26T12:03:40.682Z,264.38
2018-03-26T12:05:33.625Z,253.13
2018-03-26T12:06:33.636Z,236.25
2018-03-26T12:08:26.592Z,236.25
2018-03-26T12:09:26.585Z,241.88
2018-03-26T12:11:19.520Z,241.88
2018-03-26T12:12:19.537Z,241.88
2018-03-26T12:14:12.494Z,230.63
2018-03-26T12:15:12.487Z,219.38
2018-03-26T12:17:05.427Z,219.38
2018-03-26T12:18:05.444Z,219.38
2018-03-26T12:19:58.409Z,219.38
2018-03-26T12:20:58.395Z,219.38
2018-03-26T12:22:51.825Z,230.63
2018-03-26T12:23:51.836Z,230.63
2018-03-26T12:25:44.791Z,236.25
2018-03-26T12:26:44.786Z,253.13
2018-03-26T12:28:37.754Z,247.50
2018-03-26T12:29:37.743Z,258.75
2018-03-26T12:31:30.682Z,253.13
2018-03-26T12:32:30.739Z,258.75
2018-03-26T12:34:23.639Z,264.38
2018-03-26T12:35:23.639Z,264.38
2018-03-26T12:37:16.573Z,258.75
2018-03-26T12:38:16.590Z,253.13
2018-03-26T12:40:09.548Z,247.50
2018-03-26T12:41:09.542Z,247.50
2018-03-26T12:43:02.487Z,258.75
2018-03-26T12:44:02.500Z,253.13
2018-03-26T12:45:55.457Z,258.75
2018-03-26T12:46:55.458Z,241.88
2018-03-26T12:48:48.385Z,241.88
2018-03-26T12:49:48.401Z,225.00
2018-03-26T12:51:41.357Z,219.38
2018-03-26T12:52:41.351Z,208.13
2018-03-26T12:54:34.309Z,202.50
2018-03-26T12:55:34.307Z,202.50
2018-03-26T12:57:27.255Z,196.88
2018-03-26T12:58:27.262Z,196.88
2018-03-26T13:00:20.218Z,202.50
2018-03-26T13:01:20.216Z,208.13
2018-03-26T13:03:13.150Z,208.13
2018-03-26T13:04:13.167Z,219.38
2018-03-26T13:06:06.123Z,225.00
2018-03-26T13:07:06.150Z,236.25
2018-03-26T13:08:59.057Z,225.00
2018-03-26T13:09:59.072Z,196.88
2018-03-26T13:11:52.028Z,247.50
2018-03-26T13:12:52.028Z,247.50
2018-03-26T13:14:44.983Z,191.25
2018-03-26T13:15:44.977Z,191.25
2018-03-26T13:17:37.917Z,213.75
2018-03-26T13:18:37.930Z,213.75
2018-03-26T13:20:30.891Z,202.50
2018-03-26T13:21:30.893Z,157.50
2018-03-26T13:23:23.818Z,208.13
2018-03-26T13:24:23.833Z,208.13
2018-03-26T13:26:16.793Z,208.13
2018-03-26T13:27:16.792Z,163.13
2018-03-26T13:29:09.736Z,163.13
2018-03-26T13:30:09.749Z,202.50
2018-03-26T13:32:02.713Z,196.88
2018-03-26T13:33:02.698Z,196.88
2018-03-26T13:34:55.658Z,196.88
2018-03-26T13:35:55.653Z,202.50
2018-03-26T13:37:48.591Z,202.50
2018-03-26T13:38:48.606Z,202.50
2018-03-26T13:40:41.569Z,196.88
2018-03-26T13:41:41.562Z,196.88
2018-03-26T13:43:34.990Z,151.88
2018-03-26T13:44:35.011Z,191.25
2018-03-26T13:46:28.461Z,146.25
2018-03-26T13:47:28.460Z,196.88
2018-03-26T13:49:21.885Z,191.25
2018-03-26T13:50:21.899Z,135.00
2018-03-26T13:52:14.860Z,123.75
2018-03-26T13:53:14.854Z,135.00
2018-03-26T13:55:07.815Z,129.38
2018-03-26T13:56:07.805Z,123.75
2018-03-26T13:58:00.743Z,180.00
2018-03-26T13:59:00.784Z,118.13
2018-03-26T14:00:53.717Z,118.13
2018-03-26T14:01:53.711Z,118.13
2018-03-26T14:03:46.657Z,168.75
2018-03-26T14:04:46.671Z,118.13
2018-03-26T14:06:39.625Z,118.13
2018-03-26T14:07:39.620Z,123.75
2018-03-26T14:09:32.563Z,191.25
2018-03-26T14:10:32.569Z,191.25
2018-03-26T14:12:25.523Z,129.38
2018-03-26T14:13:25.522Z,129.38
2018-03-26T14:15:18.454Z,157.50
2018-03-26T14:16:18.480Z,185.63
2018-03-26T14:18:11.436Z,123.75
2018-03-26T14:19:11.423Z,135.00
2018-03-26T14:21:04.381Z,202.50
2018-03-26T14:22:04.371Z,196.88
2018-03-26T14:23:57.310Z,196.88
2018-03-26T14:24:57.325Z,196.88
2018-03-26T14:26:50.273Z,191.25
2018-03-26T14:27:50.274Z,185.63
2018-03-26T14:29:43.200Z,180.00
2018-03-26T14:30:43.212Z,174.38
2018-03-26T14:32:36.168Z,174.38
2018-03-26T14:33:36.161Z,174.38
2018-03-26T14:35:29.133Z,168.75
2018-03-26T14:36:29.111Z,168.75
2018-03-26T14:38:22.064Z,174.38
2018-03-26T14:39:22.059Z,168.75
2018-03-26T14:41:15.019Z,168.75
2018-03-26T14:42:15.012Z,174.38
2018-03-26T14:44:07.952Z,118.13
2018-03-26T14:45:07.970Z,168.75
2018-03-26T14:47:00.912Z,168.75
2018-03-26T14:48:00.912Z,180.00
2018-03-26T14:49:53.848Z,146.25
2018-03-26T14:50:53.864Z,157.50
2018-03-26T14:52:46.817Z,146.25
2018-03-26T14:53:46.813Z,140.63
2018-03-26T14:55:40.242Z,140.63
2018-03-26T14:56:40.251Z,135.00
2018-03-26T14:58:33.204Z,140.63
2018-03-26T14:59:33.202Z,135.00
2018-03-26T15:01:26.166Z,140.63
2018-03-26T15:02:26.176Z,140.63
2018-03-26T15:04:19.102Z,129.38
2018-03-26T15:05:19.133Z,129.38
2018-03-26T15:07:12.077Z,112.50
2018-03-26T15:08:12.072Z,106.88
2018-03-26T15:10:05.003Z,95.63
2018-03-26T15:11:05.022Z,90.00
2018-03-26T15:12:57.971Z,78.75
2018-03-26T15:13:57.973Z,73.13
2018-03-26T15:15:50.897Z,67.50
2018-03-26T15:16:50.914Z,67.50
2018-03-26T15:18:44.365Z,67.50
2018-03-26T15:19:44.377Z,67.50
2018-03-26T15:21:37.316Z,67.50
2018-03-26T15:22:37.308Z,73.13
2018-03-26T15:24:30.242Z,78.75
2018-03-26T15:25:30.258Z,84.38
2018-03-26T15:27:23.230Z,84.38
2018-03-26T15:28:23.210Z,84.38
2018-03-26T15:30:16.137Z,84.38
2018-03-26T15:31:16.158Z,84.38
2018-03-26T15:33:09.099Z,84.38
2018-03-26T15:34:09.092Z,84.38
2018-03-26T15:36:02.036Z,95.63
2018-03-26T15:37:02.059Z,95.63
2018-03-26T15:38:55.009Z,101.25
2018-03-26T15:39:55.002Z,106.88
2018-03-26T15:41:47.956Z,106.88
2018-03-26T15:42:47.938Z,106.88
2018-03-26T15:44:40.879Z,106.88
2018-03-26T15:45:40.894Z,106.88
2018-03-26T15:47:33.838Z,106.88
2018-03-26T15:48:33.833Z,101.25
2018-03-26T15:50:26.782Z,95.63
2018-03-26T15:51:26.783Z,90.00
2018-03-26T15:53:19.740Z,78.75
2018-03-26T15:54:19.734Z,78.75
2018-03-26T15:56:12.680Z,67.50
2018-03-26T15:57:12.688Z,61.88
2018-03-26T15:59:05.645Z,61.88
2018-03-26T16:00:05.637Z,61.88
2018-03-26T16:01:58.584Z,56.25
2018-03-26T16:02:58.577Z,56.25
2018-03-26T16:04:51.520Z,50.63
2018-03-26T16:05:51.565Z,50.63
2018-03-26T16:07:44.480Z,50.63
2018-03-26T16:08:44.475Z,50.63
2018-03-26T16:10:37.427Z,50.63
2018-03-26T16:11:37.424Z,50.63
2018-03-26T16:13:30.394Z,50.63
2018-03-26T16:14:30.382Z,50.63
2018-03-26T16:16:23.330Z,56.25
2018-03-26T16:17:23.350Z,61.88
2018-03-26T16:19:16.301Z,67.50
2018-03-26T16:20:16.289Z,67.50
2018-03-26T16:22:09.223Z,67.50
2018-03-26T16:23:09.227Z,67.50
2018-03-26T16:25:02.179Z,67.50
2018-03-26T16:26:02.170Z,67.50
2018-03-26T16:27:55.135Z,67.50
2018-03-26T16:28:55.126Z,61.88
2018-03-26T16:30:48.065Z,61.88
2018-03-26T16:31:48.083Z,61.88
2018-03-26T16:33:41.035Z,50.63
2018-03-26T16:34:41.030Z,50.63
2018-03-26T16:36:33.960Z,45.00
2018-03-26T16:37:33.990Z,45.00
2018-03-26T16:39:26.933Z,39.38
2018-03-26T16:40:26.926Z,39.38
2018-03-26T16:42:19.856Z,39.38
2018-03-26T16:43:19.871Z,39.38
2018-03-26T16:45:12.823Z,33.75
2018-03-26T16:46:12.817Z,33.75
2018-03-26T16:48:05.771Z,33.75
2018-03-26T16:49:05.766Z,33.75
2018-03-26T16:50:58.694Z,28.13
2018-03-26T16:51:58.716Z,22.50
2018-03-26T16:53:51.664Z,16.88
2018-03-26T16:54:51.656Z,16.88
2018-03-26T16:56:44.611Z,16.88
2018-03-26T16:57:44.629Z,16.88
2018-03-26T16:59:37.586Z,16.88
2018-03-26T17:00:37.577Z,16.88
2018-03-26T17:02:30.560Z,22.50
2018-03-26T17:03:30.574Z,16.88
2018-03-26T17:05:23.524Z,22.50
2018-03-26T17:06:23.518Z,22.50
2018-03-26T17:08:16.478Z,22.50
2018-03-26T17:09:16.468Z,28.13
2018-03-26T17:11:09.897Z,28.13
2018-03-26T17:12:09.909Z,33.75
2018-03-26T17:14:02.877Z,33.75
2018-03-26T17:15:02.866Z,33.75
2018-03-26T17:16:55.794Z,28.13
2018-03-26T17:17:55.806Z,28.13
2018-03-26T17:19:50.255Z,22.50
2018-03-26T17:20:50.247Z,22.50
2018-03-26T17:22:43.186Z,16.88
2018-03-26T17:23:43.195Z,16.88
2018-03-26T17:25:36.147Z,16.88
2018-03-26T17:26:36.137Z,11.25
2018-03-26T17:28:29.113Z,11.25
2018-03-26T17:29:29.112Z,5.63
2018-03-26T17:31:22.533Z,5.63
2018-03-26T17:32:22.546Z,5.63
2018-03-26T17:34:15.507Z,5.63
2018-03-26T17:35:15.498Z,0.00
2018-03-26T17:37:08.439Z,0.00
2018-03-26T17:38:08.450Z,0.00
2018-03-26T17:40:01.401Z,0.00
2018-03-26T17:41:01.393Z,0.00
2018-03-26T17:42:54.321Z,0.00
2018-03-26T17:43:54.341Z,0.00
2018-03-26T17:45:47.288Z,0.00
2018-03-26T17:46:47.284Z,0.00
2018-03-26T17:48:40.720Z,0.00
2018-03-26T17:49:40.722Z,0.00
2018-03-26T17:51:33.661Z,0.00
2018-03-26T17:52:33.706Z,0.00
2018-03-26T17:54:26.618Z,0.00
2018-03-26T17:55:26.608Z,0.00
2018-03-26T17:57:19.546Z,0.00
2018-03-26T17:58:19.559Z,0.00
2018-03-26T18:00:13.004Z,0.00
2018-03-26T18:01:12.999Z,0.00
2018-03-26T18:03:05.958Z,0.00
2018-03-26T18:04:05.968Z,0.00
2018-03-26T18:05:59.430Z,0.00
2018-03-26T18:06:59.415Z,0.00
2018-03-26T18:08:52.871Z,0.00
2018-03-26T18:09:52.868Z,0.00
2018-03-26T18:11:46.297Z,0.00
2018-03-26T18:12:46.311Z,0.00
2018-03-26T18:14:39.264Z,0.00
2018-03-26T18:15:39.257Z,0.00
2018-03-26T18:17:32.190Z,0.00
2018-03-26T18:18:32.205Z,0.00
2018-03-26T18:20:25.155Z,0.00
2018-03-26T18:21:25.151Z,0.00
2018-03-26T18:23:18.090Z,0.00
2018-03-26T18:24:18.095Z,0.00
2018-03-26T18:26:11.050Z,0.00
2018-03-26T18:27:11.038Z,0.00
2018-03-26T18:29:04.477Z,0.00
2018-03-26T18:30:04.475Z,0.00
2018-03-26T18:31:57.400Z,0.00
2018-03-26T18:32:57.414Z,0.00
2018-03-26T18:34:50.866Z,0.00
2018-03-26T18:35:50.852Z,0.00
2018-03-26T18:37:43.777Z,0.00
2018-03-26T18:38:43.797Z,0.00
2018-03-26T18:40:36.747Z,0.00
2018-03-26T18:41:36.740Z,0.00
2018-03-26T18:43:29.673Z,0.00
2018-03-26T18:44:29.721Z,0.00
2018-03-26T18:46:22.638Z,0.00
2018-03-26T18:47:22.634Z,0.00
2018-03-26T18:49:15.584Z,0.00
2018-03-26T18:50:15.581Z,0.00
2018-03-26T18:52:08.510Z,0.00
2018-03-26T18:53:08.520Z,0.00
2018-03-26T18:55:01.478Z,0.00
2018-03-26T18:56:01.482Z,0.00
2018-03-26T18:57:54.393Z,0.00
2018-03-26T18:58:54.404Z,0.00
2018-03-26T19:00:47.867Z,0.00
2018-03-26T19:01:47.859Z,0.00
2018-03-26T19:03:40.792Z,0.00
2018-03-26T19:04:40.800Z,0.00
2018-03-26T19:06:34.257Z,0.00
2018-03-26T19:07:34.248Z,0.00
2018-03-26T19:09:27.196Z,0.00
2018-03-26T19:10:27.187Z,0.00
2018-03-26T19:12:20.610Z,0.00
2018-03-26T19:13:20.621Z,0.00
2018-03-26T19:15:14.071Z,0.00
2018-03-26T19:16:14.064Z,0.00
2018-03-26T19:18:06.986Z,0.00
2018-03-26T19:19:06.999Z,0.00
2018-03-26T19:20:59.951Z,0.00
2018-03-26T19:21:59.946Z,0.00
2018-03-26T19:23:52.865Z,0.00
2018-03-26T19:24:52.879Z,0.00
2018-03-26T19:26:45.825Z,0.00
2018-03-26T19:27:45.814Z,0.00
2018-03-26T19:29:38.762Z,0.00
2018-03-26T19:30:38.754Z,0.00
2018-03-26T19:32:31.710Z,0.00
2018-03-26T19:33:31.719Z,0.00
2018-03-26T19:35:24.666Z,0.00
2018-03-26T19:36:24.660Z,0.00
2018-03-26T19:38:17.602Z,0.00
2018-03-26T19:39:17.607Z,0.00
2018-03-26T19:41:10.555Z,0.00
2018-03-26T19:42:10.544Z,0.00
2018-03-26T19:44:03.473Z,0.00
2018-03-26T19:45:03.485Z,0.00
2018-03-26T19:46:56.441Z,0.00
2018-03-26T19:47:56.430Z,0.00
2018-03-26T19:49:49.388Z,0.00
2018-03-26T19:50:49.368Z,0.00
2018-03-26T19:52:42.328Z,0.00
2018-03-26T19:53:42.315Z,0.00
2018-03-26T19:55:35.286Z,0.00
2018-03-26T19:56:35.270Z,0.00
2018-03-26T19:58:28.241Z,0.00
2018-03-26T19:59:28.222Z,0.00
2018-03-26T20:01:21.169Z,0.00
2018-03-26T20:02:21.148Z,0.00
2018-03-26T20:04:14.090Z,0.00
2018-03-26T20:05:14.153Z,0.00
2018-03-26T20:07:07.041Z,0.00
2018-03-26T20:08:07.030Z,0.00
2018-03-26T20:09:59.960Z,0.00
2018-03-26T20:10:59.972Z,0.00
2018-03-26T20:12:52.928Z,0.00
2018-03-26T20:13:52.916Z,0.00
2018-03-26T20:15:45.864Z,0.00
2018-03-26T20:16:45.857Z,0.00
2018-03-26T20:18:38.802Z,0.00
2018-03-26T20:19:38.794Z,0.00
2018-03-26T20:21:32.229Z,0.00
2018-03-26T20:22:32.223Z,0.00
2018-03-26T20:24:25.152Z,0.00
2018-03-26T20:25:25.161Z,0.00
2018-03-26T20:27:18.112Z,0.00
2018-03-26T20:28:18.097Z,0.00
2018-03-26T20:30:11.039Z,0.00